sensor_id;sensor_type;location;lat;lon;timestamp;P1;durP1;ratioP1;P2;durP2;ratioP2
29280;SDS011;25048;49.590;11.026;2023-12-20T00:00:36;10.77;;;7.10;;
29280;SDS011;25048;49.590;11.026;2023-12-20T00:03:04;16.17;;;7.70;;
29280;SDS011;25048;49.590;11.026;2023-12-20T00:05:31;11.23;;;6.33;;
29280;SDS011;25048;49.590;11.026;2023-12-20T00:07:59;10.47;;;6.20;;
29280;SDS011;25048;49.590;11.026;2023-12-20T00:10:26;13.40;;;6.90;;
29280;SDS011;25048;49.590;11.026;2023-12-20T00:12:54;10.23;;;6.47;;
29280;SDS011;25048;49.590;11.026;2023-12-20T00:15:21;11.93;;;6.50;;
29280;SDS011;25048;49.590;11.026;2023-12-20T00:17:49;12.13;;;6.30;;
29280;SDS011;25048;49.590;11.026;2023-12-20T00:20:16;18.43;;;6.73;;
29280;SDS011;25048;49.590;11.026;2023-12-20T00:22:44;10.33;;;6.30;;
29280;SDS011;25048;49.590;11.026;2023-12-20T00:25:12;11.93;;;6.67;;
29280;SDS011;25048;49.590;11.026;2023-12-20T00:27:39;10.40;;;6.63;;
29280;SDS011;25048;49.590;11.026;2023-12-20T00:30:07;10.20;;;6.03;;
29280;SDS011;25048;49.590;11.026;2023-12-20T00:32:35;12.67;;;7.00;;
29280;SDS011;25048;49.590;11.026;2023-12-20T00:35:03;11.33;;;6.80;;
29280;SDS011;25048;49.590;11.026;2023-12-20T00:37:31;11.90;;;6.47;;
29280;SDS011;25048;49.590;11.026;2023-12-20T00:39:58;12.13;;;6.13;;
29280;SDS011;25048;49.590;11.026;2023-12-20T00:42:26;14.87;;;6.20;;
29280;SDS011;25048;49.590;11.026;2023-12-20T00:44:54;11.77;;;6.83;;
29280;SDS011;25048;49.590;11.026;2023-12-20T00:47:21;12.53;;;5.53;;
29280;SDS011;25048;49.590;11.026;2023-12-20T00:49:49;12.03;;;5.77;;
29280;SDS011;25048;49.590;11.026;2023-12-20T00:52:16;11.40;;;6.90;;
29280;SDS011;25048;49.590;11.026;2023-12-20T00:54:45;12.83;;;6.10;;
29280;SDS011;25048;49.590;11.026;2023-12-20T00:57:12;8.20;;;4.97;;
29280;SDS011;25048;49.590;11.026;2023-12-20T00:59:40;8.13;;;5.03;;
29280;SDS011;25048;49.590;11.026;2023-12-20T01:02:08;9.03;;;5.70;;
29280;SDS011;25048;49.590;11.026;2023-12-20T01:04:35;6.93;;;4.57;;
29280;SDS011;25048;49.590;11.026;2023-12-20T01:07:03;8.67;;;5.07;;
29280;SDS011;25048;49.590;11.026;2023-12-20T01:09:30;6.53;;;4.33;;
29280;SDS011;25048;49.590;11.026;2023-12-20T01:11:58;8.30;;;4.10;;
29280;SDS011;25048;49.590;11.026;2023-12-20T01:14:25;6.07;;;4.10;;
29280;SDS011;25048;49.590;11.026;2023-12-20T01:16:53;6.23;;;4.00;;
29280;SDS011;25048;49.590;11.026;2023-12-20T01:19:20;7.30;;;3.83;;
29280;SDS011;25048;49.590;11.026;2023-12-20T01:21:49;6.13;;;3.57;;
29280;SDS011;25048;49.590;11.026;2023-12-20T01:24:17;5.30;;;3.40;;
29280;SDS011;25048;49.590;11.026;2023-12-20T01:26:44;5.43;;;3.00;;
29280;SDS011;25048;49.590;11.026;2023-12-20T01:29:12;9.03;;;4.00;;
29280;SDS011;25048;49.590;11.026;2023-12-20T01:31:40;3.93;;;2.63;;
29280;SDS011;25048;49.590;11.026;2023-12-20T01:34:07;4.60;;;3.30;;
29280;SDS011;25048;49.590;11.026;2023-12-20T01:36:35;4.23;;;2.90;;
29280;SDS011;25048;49.590;11.026;2023-12-20T01:39:02;4.03;;;2.77;;
29280;SDS011;25048;49.590;11.026;2023-12-20T01:41:30;6.20;;;3.03;;
29280;SDS011;25048;49.590;11.026;2023-12-20T01:43:57;3.43;;;2.27;;
29280;SDS011;25048;49.590;11.026;2023-12-20T01:46:25;4.50;;;3.13;;
29280;SDS011;25048;49.590;11.026;2023-12-20T01:48:53;4.43;;;2.07;;
29280;SDS011;25048;49.590;11.026;2023-12-20T01:51:20;5.50;;;2.63;;
29280;SDS011;25048;49.590;11.026;2023-12-20T01:53:49;7.57;;;3.30;;
29280;SDS011;25048;49.590;11.026;2023-12-20T01:56:16;3.97;;;2.37;;
29280;SDS011;25048;49.590;11.026;2023-12-20T01:58:44;5.23;;;2.70;;
29280;SDS011;25048;49.590;11.026;2023-12-20T02:01:13;2.97;;;2.20;;
29280;SDS011;25048;49.590;11.026;2023-12-20T02:03:41;2.83;;;2.40;;
29280;SDS011;25048;49.590;11.026;2023-12-20T02:06:09;3.67;;;2.43;;
29280;SDS011;25048;49.590;11.026;2023-12-20T02:08:37;2.83;;;2.37;;
29280;SDS011;25048;49.590;11.026;2023-12-20T02:11:05;3.23;;;2.33;;
29280;SDS011;25048;49.590;11.026;2023-12-20T02:13:32;3.63;;;2.37;;
29280;SDS011;25048;49.590;11.026;2023-12-20T02:16:00;3.40;;;2.63;;
29280;SDS011;25048;49.590;11.026;2023-12-20T02:18:28;2.73;;;2.00;;
29280;SDS011;25048;49.590;11.026;2023-12-20T02:20:55;3.77;;;1.97;;
29280;SDS011;25048;49.590;11.026;2023-12-20T02:23:23;2.50;;;1.90;;
29280;SDS011;25048;49.590;11.026;2023-12-20T02:25:51;2.43;;;1.97;;
29280;SDS011;25048;49.590;11.026;2023-12-20T02:28:18;2.27;;;2.07;;
29280;SDS011;25048;49.590;11.026;2023-12-20T02:30:47;2.43;;;1.93;;
29280;SDS011;25048;49.590;11.026;2023-12-20T02:33:15;3.67;;;1.70;;
29280;SDS011;25048;49.590;11.026;2023-12-20T02:35:43;3.80;;;1.77;;
29280;SDS011;25048;49.590;11.026;2023-12-20T02:38:10;2.27;;;1.70;;
29280;SDS011;25048;49.590;11.026;2023-12-20T02:40:38;2.27;;;1.60;;
29280;SDS011;25048;49.590;11.026;2023-12-20T02:43:05;4.40;;;2.00;;
29280;SDS011;25048;49.590;11.026;2023-12-20T02:45:33;2.30;;;1.87;;
29280;SDS011;25048;49.590;11.026;2023-12-20T02:48:01;2.00;;;1.80;;
29280;SDS011;25048;49.590;11.026;2023-12-20T02:50:28;2.80;;;1.67;;
29280;SDS011;25048;49.590;11.026;2023-12-20T02:52:56;2.50;;;1.67;;
29280;SDS011;25048;49.590;11.026;2023-12-20T02:55:24;3.10;;;1.90;;
29280;SDS011;25048;49.590;11.026;2023-12-20T02:57:51;1.73;;;1.57;;
29280;SDS011;25048;49.590;11.026;2023-12-20T03:00:19;2.03;;;1.77;;
29280;SDS011;25048;49.590;11.026;2023-12-20T03:02:46;1.97;;;1.57;;
29280;SDS011;25048;49.590;11.026;2023-12-20T03:05:14;2.47;;;1.30;;
29280;SDS011;25048;49.590;11.026;2023-12-20T03:07:41;1.63;;;1.50;;
29280;SDS011;25048;49.590;11.026;2023-12-20T03:10:09;2.53;;;1.37;;
29280;SDS011;25048;49.590;11.026;2023-12-20T03:12:36;2.13;;;1.63;;
29280;SDS011;25048;49.590;11.026;2023-12-20T03:15:04;1.67;;;1.30;;
29280;SDS011;25048;49.590;11.026;2023-12-20T03:17:32;2.93;;;1.30;;
29280;SDS011;25048;49.590;11.026;2023-12-20T03:19:59;1.20;;;1.07;;
29280;SDS011;25048;49.590;11.026;2023-12-20T03:22:27;1.80;;;1.63;;
29280;SDS011;25048;49.590;11.026;2023-12-20T03:24:54;2.67;;;1.67;;
29280;SDS011;25048;49.590;11.026;2023-12-20T03:27:22;1.70;;;1.40;;
29280;SDS011;25048;49.590;11.026;2023-12-20T03:29:49;2.10;;;1.50;;
29280;SDS011;25048;49.590;11.026;2023-12-20T03:32:17;2.03;;;1.50;;
29280;SDS011;25048;49.590;11.026;2023-12-20T03:34:44;2.33;;;1.70;;
29280;SDS011;25048;49.590;11.026;2023-12-20T03:37:12;1.57;;;1.40;;
29280;SDS011;25048;49.590;11.026;2023-12-20T03:39:39;1.83;;;1.47;;
29280;SDS011;25048;49.590;11.026;2023-12-20T03:42:07;2.63;;;1.63;;
29280;SDS011;25048;49.590;11.026;2023-12-20T03:44:34;2.27;;;1.77;;
29280;SDS011;25048;49.590;11.026;2023-12-20T03:47:03;2.00;;;1.80;;
29280;SDS011;25048;49.590;11.026;2023-12-20T03:49:31;1.87;;;1.40;;
29280;SDS011;25048;49.590;11.026;2023-12-20T03:51:58;2.40;;;1.70;;
29280;SDS011;25048;49.590;11.026;2023-12-20T03:54:26;1.43;;;1.23;;
29280;SDS011;25048;49.590;11.026;2023-12-20T03:56:53;1.60;;;1.40;;
29280;SDS011;25048;49.590;11.026;2023-12-20T03:59:21;1.73;;;1.50;;
29280;SDS011;25048;49.590;11.026;2023-12-20T04:01:49;1.57;;;1.30;;
29280;SDS011;25048;49.590;11.026;2023-12-20T04:04:16;1.87;;;1.60;;
29280;SDS011;25048;49.590;11.026;2023-12-20T04:06:44;1.63;;;1.33;;
29280;SDS011;25048;49.590;11.026;2023-12-20T04:09:12;2.00;;;1.60;;
29280;SDS011;25048;49.590;11.026;2023-12-20T04:11:39;1.60;;;1.50;;
29280;SDS011;25048;49.590;11.026;2023-12-20T04:14:07;2.13;;;1.60;;
29280;SDS011;25048;49.590;11.026;2023-12-20T04:16:34;2.37;;;1.60;;
29280;SDS011;25048;49.590;11.026;2023-12-20T04:19:02;1.33;;;1.23;;
29280;SDS011;25048;49.590;11.026;2023-12-20T04:21:30;1.63;;;1.30;;
29280;SDS011;25048;49.590;11.026;2023-12-20T04:23:57;3.20;;;1.63;;
29280;SDS011;25048;49.590;11.026;2023-12-20T04:26:25;4.37;;;1.70;;
29280;SDS011;25048;49.590;11.026;2023-12-20T04:28:52;1.47;;;1.20;;
29280;SDS011;25048;49.590;11.026;2023-12-20T04:31:20;2.00;;;1.37;;
29280;SDS011;25048;49.590;11.026;2023-12-20T04:33:47;1.60;;;1.50;;
29280;SDS011;25048;49.590;11.026;2023-12-20T04:36:15;2.67;;;1.70;;
29280;SDS011;25048;49.590;11.026;2023-12-20T04:38:42;2.10;;;1.50;;
29280;SDS011;25048;49.590;11.026;2023-12-20T04:41:10;2.73;;;1.67;;
29280;SDS011;25048;49.590;11.026;2023-12-20T04:43:39;1.70;;;1.60;;
29280;SDS011;25048;49.590;11.026;2023-12-20T04:46:06;2.00;;;1.57;;
29280;SDS011;25048;49.590;11.026;2023-12-20T04:48:34;2.10;;;1.63;;
29280;SDS011;25048;49.590;11.026;2023-12-20T04:51:01;2.03;;;1.70;;
29280;SDS011;25048;49.590;11.026;2023-12-20T04:53:29;1.73;;;1.37;;
29280;SDS011;25048;49.590;11.026;2023-12-20T04:55:56;1.67;;;1.53;;
29280;SDS011;25048;49.590;11.026;2023-12-20T04:58:24;2.57;;;1.90;;
29280;SDS011;25048;49.590;11.026;2023-12-20T05:00:51;2.20;;;1.90;;
29280;SDS011;25048;49.590;11.026;2023-12-20T05:03:19;2.23;;;1.50;;
29280;SDS011;25048;49.590;11.026;2023-12-20T05:05:46;3.23;;;2.07;;
29280;SDS011;25048;49.590;11.026;2023-12-20T05:08:14;3.93;;;1.60;;
29280;SDS011;25048;49.590;11.026;2023-12-20T05:10:42;3.70;;;2.00;;
29280;SDS011;25048;49.590;11.026;2023-12-20T05:13:09;3.07;;;1.87;;
29280;SDS011;25048;49.590;11.026;2023-12-20T05:15:36;2.03;;;1.60;;
29280;SDS011;25048;49.590;11.026;2023-12-20T05:18:04;4.37;;;1.73;;
29280;SDS011;25048;49.590;11.026;2023-12-20T05:20:32;2.80;;;2.03;;
29280;SDS011;25048;49.590;11.026;2023-12-20T05:22:59;2.50;;;2.10;;
29280;SDS011;25048;49.590;11.026;2023-12-20T05:25:27;2.10;;;1.90;;
29280;SDS011;25048;49.590;11.026;2023-12-20T05:27:54;4.43;;;2.20;;
29280;SDS011;25048;49.590;11.026;2023-12-20T05:30:22;2.73;;;2.17;;
29280;SDS011;25048;49.590;11.026;2023-12-20T05:32:49;2.83;;;2.00;;
29280;SDS011;25048;49.590;11.026;2023-12-20T05:35:17;2.73;;;1.97;;
29280;SDS011;25048;49.590;11.026;2023-12-20T05:37:45;4.30;;;1.80;;
29280;SDS011;25048;49.590;11.026;2023-12-20T05:40:12;3.13;;;2.13;;
29280;SDS011;25048;49.590;11.026;2023-12-20T05:42:40;2.33;;;2.00;;
29280;SDS011;25048;49.590;11.026;2023-12-20T05:45:07;2.27;;;1.97;;
29280;SDS011;25048;49.590;11.026;2023-12-20T05:47:36;2.83;;;2.10;;
29280;SDS011;25048;49.590;11.026;2023-12-20T05:50:04;2.60;;;2.10;;
29280;SDS011;25048;49.590;11.026;2023-12-20T05:52:32;2.60;;;2.07;;
29280;SDS011;25048;49.590;11.026;2023-12-20T05:54:59;2.40;;;1.90;;
29280;SDS011;25048;49.590;11.026;2023-12-20T05:57:29;1.97;;;1.60;;
29280;SDS011;25048;49.590;11.026;2023-12-20T05:59:57;2.70;;;2.40;;
29280;SDS011;25048;49.590;11.026;2023-12-20T06:02:24;2.63;;;2.23;;
29280;SDS011;25048;49.590;11.026;2023-12-20T06:04:52;2.87;;;2.03;;
29280;SDS011;25048;49.590;11.026;2023-12-20T06:07:19;3.00;;;2.17;;
29280;SDS011;25048;49.590;11.026;2023-12-20T06:09:47;4.00;;;1.60;;
29280;SDS011;25048;49.590;11.026;2023-12-20T06:12:14;3.60;;;2.43;;
29280;SDS011;25048;49.590;11.026;2023-12-20T06:14:42;2.53;;;2.10;;
29280;SDS011;25048;49.590;11.026;2023-12-20T06:17:09;2.87;;;2.30;;
29280;SDS011;25048;49.590;11.026;2023-12-20T06:19:37;3.73;;;2.00;;
29280;SDS011;25048;49.590;11.026;2023-12-20T06:22:04;3.13;;;2.63;;
29280;SDS011;25048;49.590;11.026;2023-12-20T06:24:32;2.90;;;2.33;;
29280;SDS011;25048;49.590;11.026;2023-12-20T06:27:00;4.27;;;2.33;;
29280;SDS011;25048;49.590;11.026;2023-12-20T06:29:27;3.77;;;2.60;;
29280;SDS011;25048;49.590;11.026;2023-12-20T06:31:56;3.30;;;2.57;;
29280;SDS011;25048;49.590;11.026;2023-12-20T06:34:24;4.40;;;2.97;;
29280;SDS011;25048;49.590;11.026;2023-12-20T06:36:51;3.77;;;2.83;;
29280;SDS011;25048;49.590;11.026;2023-12-20T06:39:19;4.73;;;3.10;;
29280;SDS011;25048;49.590;11.026;2023-12-20T06:41:46;5.37;;;2.97;;
29280;SDS011;25048;49.590;11.026;2023-12-20T06:44:14;4.23;;;3.17;;
29280;SDS011;25048;49.590;11.026;2023-12-20T06:46:41;4.27;;;3.20;;
29280;SDS011;25048;49.590;11.026;2023-12-20T06:49:09;3.43;;;2.90;;
29280;SDS011;25048;49.590;11.026;2023-12-20T06:51:38;4.10;;;3.30;;
29280;SDS011;25048;49.590;11.026;2023-12-20T06:54:05;6.50;;;3.43;;
29280;SDS011;25048;49.590;11.026;2023-12-20T06:56:33;5.53;;;3.90;;
29280;SDS011;25048;49.590;11.026;2023-12-20T06:59:00;4.93;;;3.90;;
29280;SDS011;25048;49.590;11.026;2023-12-20T07:01:28;4.33;;;3.20;;
29280;SDS011;25048;49.590;11.026;2023-12-20T07:03:55;5.20;;;3.97;;
29280;SDS011;25048;49.590;11.026;2023-12-20T07:06:22;5.60;;;3.80;;
29280;SDS011;25048;49.590;11.026;2023-12-20T07:08:52;5.07;;;3.80;;
29280;SDS011;25048;49.590;11.026;2023-12-20T07:11:19;5.23;;;3.20;;
29280;SDS011;25048;49.590;11.026;2023-12-20T07:13:47;4.43;;;3.63;;
29280;SDS011;25048;49.590;11.026;2023-12-20T07:16:15;5.30;;;3.90;;
29280;SDS011;25048;49.590;11.026;2023-12-20T07:18:42;5.07;;;3.73;;
29280;SDS011;25048;49.590;11.026;2023-12-20T07:21:10;5.13;;;3.80;;
29280;SDS011;25048;49.590;11.026;2023-12-20T07:23:38;5.37;;;4.07;;
29280;SDS011;25048;49.590;11.026;2023-12-20T07:26:06;5.17;;;4.00;;
29280;SDS011;25048;49.590;11.026;2023-12-20T07:28:33;10.60;;;4.63;;
29280;SDS011;25048;49.590;11.026;2023-12-20T07:31:01;7.83;;;4.60;;
29280;SDS011;25048;49.590;11.026;2023-12-20T07:33:29;5.53;;;4.37;;
29280;SDS011;25048;49.590;11.026;2023-12-20T07:35:56;6.90;;;4.60;;
29280;SDS011;25048;49.590;11.026;2023-12-20T07:38:26;5.13;;;4.27;;
29280;SDS011;25048;49.590;11.026;2023-12-20T07:40:53;6.73;;;4.87;;
29280;SDS011;25048;49.590;11.026;2023-12-20T07:43:21;6.80;;;4.80;;
29280;SDS011;25048;49.590;11.026;2023-12-20T07:45:49;8.10;;;5.40;;
29280;SDS011;25048;49.590;11.026;2023-12-20T07:48:16;6.90;;;5.17;;
29280;SDS011;25048;49.590;11.026;2023-12-20T07:50:44;6.43;;;5.13;;
29280;SDS011;25048;49.590;11.026;2023-12-20T07:53:11;7.77;;;5.20;;
29280;SDS011;25048;49.590;11.026;2023-12-20T07:55:39;6.67;;;4.90;;
29280;SDS011;25048;49.590;11.026;2023-12-20T07:58:07;5.97;;;4.63;;
29280;SDS011;25048;49.590;11.026;2023-12-20T08:00:34;7.83;;;4.40;;
29280;SDS011;25048;49.590;11.026;2023-12-20T08:03:02;8.57;;;4.47;;
29280;SDS011;25048;49.590;11.026;2023-12-20T08:05:29;5.37;;;4.10;;
29280;SDS011;25048;49.590;11.026;2023-12-20T08:07:57;8.40;;;4.90;;
29280;SDS011;25048;49.590;11.026;2023-12-20T08:10:24;5.73;;;4.97;;
29280;SDS011;25048;49.590;11.026;2023-12-20T08:12:53;5.87;;;4.60;;
29280;SDS011;25048;49.590;11.026;2023-12-20T08:15:20;6.07;;;4.23;;
29280;SDS011;25048;49.590;11.026;2023-12-20T08:17:47;5.83;;;4.27;;
29280;SDS011;25048;49.590;11.026;2023-12-20T08:20:17;9.93;;;4.67;;
29280;SDS011;25048;49.590;11.026;2023-12-20T08:22:44;8.23;;;4.47;;
29280;SDS011;25048;49.590;11.026;2023-12-20T08:25:12;5.33;;;4.50;;
29280;SDS011;25048;49.590;11.026;2023-12-20T08:27:41;4.50;;;3.90;;
29280;SDS011;25048;49.590;11.026;2023-12-20T08:30:08;5.30;;;3.63;;
29280;SDS011;25048;49.590;11.026;2023-12-20T08:32:36;3.60;;;2.87;;
29280;SDS011;25048;49.590;11.026;2023-12-20T08:35:04;4.30;;;3.33;;
29280;SDS011;25048;49.590;11.026;2023-12-20T08:37:32;6.17;;;3.10;;
29280;SDS011;25048;49.590;11.026;2023-12-20T08:39:59;6.63;;;3.93;;
29280;SDS011;25048;49.590;11.026;2023-12-20T08:42:27;7.53;;;4.20;;
29280;SDS011;25048;49.590;11.026;2023-12-20T08:44:56;6.83;;;4.37;;
29280;SDS011;25048;49.590;11.026;2023-12-20T08:47:24;4.70;;;3.87;;
29280;SDS011;25048;49.590;11.026;2023-12-20T08:49:52;5.63;;;4.27;;
29280;SDS011;25048;49.590;11.026;2023-12-20T08:52:26;6.13;;;4.80;;
29280;SDS011;25048;49.590;11.026;2023-12-20T08:54:50;5.83;;;5.07;;
29280;SDS011;25048;49.590;11.026;2023-12-20T08:57:22;11.00;;;4.20;;
29280;SDS011;25048;49.590;11.026;2023-12-20T08:59:51;11.57;;;4.67;;
29280;SDS011;25048;49.590;11.026;2023-12-20T09:02:18;7.70;;;4.30;;
29280;SDS011;25048;49.590;11.026;2023-12-20T09:04:46;6.60;;;4.47;;
29280;SDS011;25048;49.590;11.026;2023-12-20T09:07:23;6.93;;;4.73;;
29280;SDS011;25048;49.590;11.026;2023-12-20T09:09:55;8.43;;;4.33;;
29280;SDS011;25048;49.590;11.026;2023-12-20T09:12:22;8.90;;;4.70;;
29280;SDS011;25048;49.590;11.026;2023-12-20T09:14:50;8.43;;;4.50;;
29280;SDS011;25048;49.590;11.026;2023-12-20T09:17:19;6.47;;;3.97;;
29280;SDS011;25048;49.590;11.026;2023-12-20T09:19:48;6.50;;;4.07;;
29280;SDS011;25048;49.590;11.026;2023-12-20T09:22:18;5.47;;;3.17;;
29280;SDS011;25048;49.590;11.026;2023-12-20T09:24:45;6.23;;;3.70;;
29280;SDS011;25048;49.590;11.026;2023-12-20T09:27:13;5.27;;;3.50;;
29280;SDS011;25048;49.590;11.026;2023-12-20T09:29:40;6.53;;;3.93;;
29280;SDS011;25048;49.590;11.026;2023-12-20T09:32:08;8.73;;;3.53;;
29280;SDS011;25048;49.590;11.026;2023-12-20T09:34:35;7.23;;;3.13;;
29280;SDS011;25048;49.590;11.026;2023-12-20T09:37:03;7.33;;;3.13;;
29280;SDS011;25048;49.590;11.026;2023-12-20T09:39:31;6.27;;;3.10;;
29280;SDS011;25048;49.590;11.026;2023-12-20T09:42:05;7.80;;;2.87;;
29280;SDS011;25048;49.590;11.026;2023-12-20T09:44:33;6.23;;;2.80;;
29280;SDS011;25048;49.590;11.026;2023-12-20T09:47:06;8.37;;;2.90;;
29280;SDS011;25048;49.590;11.026;2023-12-20T09:49:31;3.57;;;2.40;;
29280;SDS011;25048;49.590;11.026;2023-12-20T09:52:00;4.03;;;2.50;;
29280;SDS011;25048;49.590;11.026;2023-12-20T09:54:28;7.10;;;2.30;;
29280;SDS011;25048;49.590;11.026;2023-12-20T09:56:56;4.47;;;2.00;;
29280;SDS011;25048;49.590;11.026;2023-12-20T09:59:24;3.30;;;2.00;;
29280;SDS011;25048;49.590;11.026;2023-12-20T10:01:51;2.87;;;2.00;;
29280;SDS011;25048;49.590;11.026;2023-12-20T10:04:23;2.47;;;1.77;;
29280;SDS011;25048;49.590;11.026;2023-12-20T10:06:51;5.50;;;2.07;;
29280;SDS011;25048;49.590;11.026;2023-12-20T10:09:19;3.43;;;1.73;;
29280;SDS011;25048;49.590;11.026;2023-12-20T10:11:46;10.10;;;2.70;;
29280;SDS011;25048;49.590;11.026;2023-12-20T10:14:14;5.33;;;1.93;;
29280;SDS011;25048;49.590;11.026;2023-12-20T10:16:44;2.43;;;1.73;;
29280;SDS011;25048;49.590;11.026;2023-12-20T10:19:11;5.20;;;1.93;;
29280;SDS011;25048;49.590;11.026;2023-12-20T10:21:41;3.37;;;1.70;;
29280;SDS011;25048;49.590;11.026;2023-12-20T10:24:09;6.40;;;1.67;;
29280;SDS011;25048;49.590;11.026;2023-12-20T10:26:38;4.13;;;1.50;;
29280;SDS011;25048;49.590;11.026;2023-12-20T10:29:05;5.13;;;1.60;;
29280;SDS011;25048;49.590;11.026;2023-12-20T10:31:33;2.47;;;1.50;;
29280;SDS011;25048;49.590;11.026;2023-12-20T10:34:02;6.90;;;1.80;;
29280;SDS011;25048;49.590;11.026;2023-12-20T10:36:33;5.83;;;1.67;;
29280;SDS011;25048;49.590;11.026;2023-12-20T10:39:02;8.27;;;1.87;;
29280;SDS011;25048;49.590;11.026;2023-12-20T10:41:31;7.03;;;1.77;;
29280;SDS011;25048;49.590;11.026;2023-12-20T10:44:01;4.93;;;1.90;;
29280;SDS011;25048;49.590;11.026;2023-12-20T10:46:30;8.63;;;1.90;;
29280;SDS011;25048;49.590;11.026;2023-12-20T10:49:04;4.73;;;1.50;;
29280;SDS011;25048;49.590;11.026;2023-12-20T10:51:34;5.40;;;1.50;;
29280;SDS011;25048;49.590;11.026;2023-12-20T10:54:02;5.70;;;1.87;;
29280;SDS011;25048;49.590;11.026;2023-12-20T10:56:31;5.90;;;1.83;;
29280;SDS011;25048;49.590;11.026;2023-12-20T10:59:02;4.47;;;1.70;;
29280;SDS011;25048;49.590;11.026;2023-12-20T11:01:31;5.40;;;1.93;;
29280;SDS011;25048;49.590;11.026;2023-12-20T11:04:02;8.77;;;1.70;;
29280;SDS011;25048;49.590;11.026;2023-12-20T11:06:46;4.07;;;1.50;;
29280;SDS011;25048;49.590;11.026;2023-12-20T11:09:20;5.13;;;1.70;;
29280;SDS011;25048;49.590;11.026;2023-12-20T11:11:59;6.00;;;1.57;;
29280;SDS011;25048;49.590;11.026;2023-12-20T11:14:50;3.37;;;1.67;;
29280;SDS011;25048;49.590;11.026;2023-12-20T11:17:15;7.03;;;1.70;;
29280;SDS011;25048;49.590;11.026;2023-12-20T11:22:27;7.17;;;1.73;;
29280;SDS011;25048;49.590;11.026;2023-12-20T11:25:20;5.00;;;1.20;;
29280;SDS011;25048;49.590;11.026;2023-12-20T11:27:35;7.07;;;1.63;;
29280;SDS011;25048;49.590;11.026;2023-12-20T11:30:05;3.50;;;1.70;;
29280;SDS011;25048;49.590;11.026;2023-12-20T11:32:36;3.10;;;1.40;;
29280;SDS011;25048;49.590;11.026;2023-12-20T11:37:38;2.40;;;1.33;;
29280;SDS011;25048;49.590;11.026;2023-12-20T11:40:11;4.83;;;1.33;;
29280;SDS011;25048;49.590;11.026;2023-12-20T11:42:43;2.27;;;1.27;;
29280;SDS011;25048;49.590;11.026;2023-12-20T11:45:17;5.03;;;1.40;;
29280;SDS011;25048;49.590;11.026;2023-12-20T11:47:45;7.10;;;2.67;;
29280;SDS011;25048;49.590;11.026;2023-12-20T11:50:15;5.50;;;1.67;;
29280;SDS011;25048;49.590;11.026;2023-12-20T11:52:44;5.67;;;1.70;;
29280;SDS011;25048;49.590;11.026;2023-12-20T11:55:11;3.97;;;1.40;;
29280;SDS011;25048;49.590;11.026;2023-12-20T11:57:39;4.40;;;1.40;;
29280;SDS011;25048;49.590;11.026;2023-12-20T12:00:07;4.50;;;1.50;;
29280;SDS011;25048;49.590;11.026;2023-12-20T12:02:34;4.33;;;1.80;;
29280;SDS011;25048;49.590;11.026;2023-12-20T12:05:02;4.13;;;1.60;;
29280;SDS011;25048;49.590;11.026;2023-12-20T12:07:33;7.80;;;1.47;;
29280;SDS011;25048;49.590;11.026;2023-12-20T12:10:01;7.53;;;1.57;;
29280;SDS011;25048;49.590;11.026;2023-12-20T12:12:31;8.20;;;1.87;;
29280;SDS011;25048;49.590;11.026;2023-12-20T12:14:59;6.63;;;1.60;;
29280;SDS011;25048;49.590;11.026;2023-12-20T12:17:28;3.40;;;1.33;;
29280;SDS011;25048;49.590;11.026;2023-12-20T12:20:07;5.43;;;1.50;;
29280;SDS011;25048;49.590;11.026;2023-12-20T12:22:31;3.07;;;1.60;;
29280;SDS011;25048;49.590;11.026;2023-12-20T12:24:59;6.60;;;2.03;;
29280;SDS011;25048;49.590;11.026;2023-12-20T12:27:41;5.33;;;1.60;;
29280;SDS011;25048;49.590;11.026;2023-12-20T12:30:10;4.67;;;1.60;;
29280;SDS011;25048;49.590;11.026;2023-12-20T12:32:39;7.43;;;1.80;;
29280;SDS011;25048;49.590;11.026;2023-12-20T12:35:07;6.30;;;1.77;;
29280;SDS011;25048;49.590;11.026;2023-12-20T12:37:35;5.27;;;2.10;;
29280;SDS011;25048;49.590;11.026;2023-12-20T12:40:06;6.27;;;1.53;;
29280;SDS011;25048;49.590;11.026;2023-12-20T12:42:36;5.80;;;1.70;;
29280;SDS011;25048;49.590;11.026;2023-12-20T12:45:04;2.67;;;1.60;;
29280;SDS011;25048;49.590;11.026;2023-12-20T12:47:32;2.07;;;1.40;;
29280;SDS011;25048;49.590;11.026;2023-12-20T12:50:00;4.67;;;1.57;;
29280;SDS011;25048;49.590;11.026;2023-12-20T12:52:28;3.73;;;1.60;;
29280;SDS011;25048;49.590;11.026;2023-12-20T12:54:56;6.27;;;1.60;;
29280;SDS011;25048;49.590;11.026;2023-12-20T12:57:24;4.80;;;1.57;;
29280;SDS011;25048;49.590;11.026;2023-12-20T12:59:52;3.90;;;1.40;;
29280;SDS011;25048;49.590;11.026;2023-12-20T13:02:19;3.40;;;1.30;;
29280;SDS011;25048;49.590;11.026;2023-12-20T13:04:47;6.60;;;1.80;;
29280;SDS011;25048;49.590;11.026;2023-12-20T13:07:14;3.63;;;1.70;;
29280;SDS011;25048;49.590;11.026;2023-12-20T13:09:42;7.50;;;2.13;;
29280;SDS011;25048;49.590;11.026;2023-12-20T13:12:10;8.63;;;1.80;;
29280;SDS011;25048;49.590;11.026;2023-12-20T13:14:37;7.00;;;1.60;;
29280;SDS011;25048;49.590;11.026;2023-12-20T13:17:06;2.93;;;1.37;;
29280;SDS011;25048;49.590;11.026;2023-12-20T13:19:33;7.27;;;2.00;;
29280;SDS011;25048;49.590;11.026;2023-12-20T13:22:01;2.97;;;1.67;;
29280;SDS011;25048;49.590;11.026;2023-12-20T13:24:29;7.17;;;1.83;;
29280;SDS011;25048;49.590;11.026;2023-12-20T13:26:58;5.17;;;1.60;;
29280;SDS011;25048;49.590;11.026;2023-12-20T13:29:25;3.17;;;1.70;;
29280;SDS011;25048;49.590;11.026;2023-12-20T13:31:56;6.77;;;1.60;;
29280;SDS011;25048;49.590;11.026;2023-12-20T13:34:24;4.63;;;1.50;;
29280;SDS011;25048;49.590;11.026;2023-12-20T13:36:52;3.63;;;1.80;;
29280;SDS011;25048;49.590;11.026;2023-12-20T13:39:19;4.77;;;1.40;;
29280;SDS011;25048;49.590;11.026;2023-12-20T13:41:47;5.30;;;1.87;;
29280;SDS011;25048;49.590;11.026;2023-12-20T13:44:14;3.80;;;1.20;;
29280;SDS011;25048;49.590;11.026;2023-12-20T13:46:42;3.70;;;1.40;;
29280;SDS011;25048;49.590;11.026;2023-12-20T13:49:11;11.17;;;2.97;;
29280;SDS011;25048;49.590;11.026;2023-12-20T13:51:39;7.40;;;2.20;;
29280;SDS011;25048;49.590;11.026;2023-12-20T13:54:07;6.07;;;1.70;;
29280;SDS011;25048;49.590;11.026;2023-12-20T13:56:36;4.07;;;1.63;;
29280;SDS011;25048;49.590;11.026;2023-12-20T13:59:03;4.43;;;1.80;;
29280;SDS011;25048;49.590;11.026;2023-12-20T14:01:31;6.73;;;1.70;;
29280;SDS011;25048;49.590;11.026;2023-12-20T14:03:58;5.20;;;1.47;;
29280;SDS011;25048;49.590;11.026;2023-12-20T14:06:26;7.37;;;1.40;;
29280;SDS011;25048;49.590;11.026;2023-12-20T14:08:55;6.03;;;1.80;;
29280;SDS011;25048;49.590;11.026;2023-12-20T14:11:22;4.40;;;1.30;;
29280;SDS011;25048;49.590;11.026;2023-12-20T14:13:50;5.80;;;1.50;;
29280;SDS011;25048;49.590;11.026;2023-12-20T14:16:17;7.23;;;1.50;;
29280;SDS011;25048;49.590;11.026;2023-12-20T14:18:45;8.37;;;1.70;;
29280;SDS011;25048;49.590;11.026;2023-12-20T14:21:12;5.73;;;1.27;;
29280;SDS011;25048;49.590;11.026;2023-12-20T14:23:40;5.67;;;1.40;;
29280;SDS011;25048;49.590;11.026;2023-12-20T14:26:07;3.47;;;1.30;;
29280;SDS011;25048;49.590;11.026;2023-12-20T14:28:36;4.73;;;1.57;;
29280;SDS011;25048;49.590;11.026;2023-12-20T14:31:05;7.13;;;1.50;;
29280;SDS011;25048;49.590;11.026;2023-12-20T14:33:32;2.80;;;1.33;;
29280;SDS011;25048;49.590;11.026;2023-12-20T14:36:01;4.87;;;1.30;;
29280;SDS011;25048;49.590;11.026;2023-12-20T14:38:31;5.73;;;1.50;;
29280;SDS011;25048;49.590;11.026;2023-12-20T14:40:58;9.10;;;1.57;;
29280;SDS011;25048;49.590;11.026;2023-12-20T14:43:26;3.87;;;1.37;;